KMDT/MDT METAR and TAF weather

Enter ICAO airport designator
Station Type Date Time Source
KMDT METAR 2020/01/27 10:56 UTC NOAA

KMDT 271056Z 00000KT 10SM OVC032 03/M02 A2975 RMK AO2 SLP077 T00331017


Station Type Date Time Source
KMDT Decoded METAR 2020/01/27 10:56 UTC NOAA

HARRISBURG INTERNATIONAL AIRPORT, PA, United States (KMDT) 40-12N 076-46W 95M
Jan 27, 2020 - 05:56 AM EST / 2020.01.27 1056 UTC
Wind: Calm:0
Visibility: 10 mile(s):0
Sky conditions: overcast
Temperature: 37.9 F (3.3 C)
Dew Point: 28.9 F (-1.7 C)
Relative Humidity: 69%
Pressure (altimeter): 29.75 in. Hg (1007 hPa)
ob: KMDT 271056Z 00000KT 10SM OVC032 03/M02 A2975 RMK AO2 SLP077 T00331017
cycle: 11

Station Type Date Time Source
KMDT TAF 2020/01/27 09:30 UTC NOAA

TAF
AMD KMDT 270929Z 2709/2806 25006KT P6SM BKN040
FM271500 29009KT P6SM BKN045

Example: see airport list